sensor_id;sensor_type;location;lat;lon;timestamp;pressure;altitude;pressure_sealevel;temperature;humidity
59391;BME280;53405;57.012;40.984;2022-07-01T00:00:21;100199.13;;;13.35;55.88
59391;BME280;53405;57.012;40.984;2022-07-01T00:02:48;100209.25;;;13.31;56.53
59391;BME280;53405;57.012;40.984;2022-07-01T00:05:16;100203.78;;;13.33;56.54
59391;BME280;53405;57.012;40.984;2022-07-01T00:08:03;100207.69;;;13.37;56.47
59391;BME280;53405;57.012;40.984;2022-07-01T00:10:49;100207.50;;;13.39;56.62
59391;BME280;53405;57.012;40.984;2022-07-01T00:13:34;100207.41;;;13.32;56.96
59391;BME280;53405;57.012;40.984;2022-07-01T00:16:20;100221.75;;;13.23;56.21
59391;BME280;53405;57.012;40.984;2022-07-01T00:19:06;100221.66;;;13.09;56.89
59391;BME280;53405;57.012;40.984;2022-07-01T00:21:52;100218.09;;;13.02;56.98
59391;BME280;53405;57.012;40.984;2022-07-01T00:24:38;100224.34;;;12.94;56.99
59391;BME280;53405;57.012;40.984;2022-07-01T00:27:23;100225.53;;;12.92;57.28
59391;BME280;53405;57.012;40.984;2022-07-01T00:30:10;100224.47;;;12.86;57.31
59391;BME280;53405;57.012;40.984;2022-07-01T00:32:37;100225.00;;;12.81;57.30
59391;BME280;53405;57.012;40.984;2022-07-01T00:35:05;100213.09;;;12.71;57.50
59391;BME280;53405;57.012;40.984;2022-07-01T00:37:51;100233.69;;;12.75;57.08
59391;BME280;53405;57.012;40.984;2022-07-01T00:40:37;100226.72;;;12.68;57.17
59391;BME280;53405;57.012;40.984;2022-07-01T00:43:23;100242.47;;;12.61;57.42
59391;BME280;53405;57.012;40.984;2022-07-01T00:46:24;100248.31;;;12.56;57.72
59391;BME280;53405;57.012;40.984;2022-07-01T00:49:11;100251.31;;;12.53;57.73
59391;BME280;53405;57.012;40.984;2022-07-01T00:51:57;100266.53;;;12.51;57.66
59391;BME280;53405;57.012;40.984;2022-07-01T00:54:25;100263.44;;;12.47;58.02
59391;BME280;53405;57.012;40.984;2022-07-01T00:57:12;100241.44;;;12.25;57.87
59391;BME280;53405;57.012;40.984;2022-07-01T00:59:58;100276.00;;;12.31;57.81
59391;BME280;53405;57.012;40.984;2022-07-01T01:02:44;100275.47;;;12.20;58.31
59391;BME280;53405;57.012;40.984;2022-07-01T01:05:31;100283.75;;;12.17;58.26
59391;BME280;53405;57.012;40.984;2022-07-01T01:08:17;100281.31;;;12.16;58.45
59391;BME280;53405;57.012;40.984;2022-07-01T01:11:04;100272.53;;;12.15;58.69
59391;BME280;53405;57.012;40.984;2022-07-01T01:13:50;100276.13;;;12.22;58.72
59391;BME280;53405;57.012;40.984;2022-07-01T01:16:35;100288.47;;;12.22;58.49
59391;BME280;53405;57.012;40.984;2022-07-01T01:19:24;100289.22;;;12.16;58.21
59391;BME280;53405;57.012;40.984;2022-07-01T01:22:16;100295.28;;;12.01;58.75
59391;BME280;53405;57.012;40.984;2022-07-01T01:25:03;100299.47;;;11.96;58.11
59391;BME280;53405;57.012;40.984;2022-07-01T01:27:49;100294.44;;;11.86;58.69
59391;BME280;53405;57.012;40.984;2022-07-01T01:30:35;100295.31;;;11.78;58.09
59391;BME280;53405;57.012;40.984;2022-07-01T01:33:21;100302.91;;;11.73;58.35
59391;BME280;53405;57.012;40.984;2022-07-01T01:36:07;100306.22;;;11.75;58.33
59391;BME280;53405;57.012;40.984;2022-07-01T01:38:53;100305.75;;;11.71;58.12
59391;BME280;53405;57.012;40.984;2022-07-01T01:41:42;100309.22;;;11.72;58.37
59391;BME280;53405;57.012;40.984;2022-07-01T01:44:28;100304.66;;;11.66;57.22
59391;BME280;53405;57.012;40.984;2022-07-01T01:47:14;100302.25;;;11.56;57.29
59391;BME280;53405;57.012;40.984;2022-07-01T01:50:00;100291.16;;;11.37;56.89
59391;BME280;53405;57.012;40.984;2022-07-01T01:52:47;100312.66;;;11.49;56.78
59391;BME280;53405;57.012;40.984;2022-07-01T01:55:33;100314.03;;;11.45;56.70
59391;BME280;53405;57.012;40.984;2022-07-01T01:58:19;100309.75;;;11.44;56.73
59391;BME280;53405;57.012;40.984;2022-07-01T02:01:05;100316.22;;;11.42;56.25
59391;BME280;53405;57.012;40.984;2022-07-01T02:03:52;100324.13;;;11.42;56.81
59391;BME280;53405;57.012;40.984;2022-07-01T02:06:38;100323.09;;;11.43;56.66
59391;BME280;53405;57.012;40.984;2022-07-01T02:09:26;100327.22;;;11.45;56.95
59391;BME280;53405;57.012;40.984;2022-07-01T02:12:13;100248.75;;;11.01;57.20
59391;BME280;53405;57.012;40.984;2022-07-01T02:14:59;100325.56;;;11.44;57.17
59391;BME280;53405;57.012;40.984;2022-07-01T02:17:45;100320.47;;;11.43;56.79
59391;BME280;53405;57.012;40.984;2022-07-01T02:20:31;100336.06;;;11.52;56.74
59391;BME280;53405;57.012;40.984;2022-07-01T02:23:18;100332.88;;;11.57;57.07
59391;BME280;53405;57.012;40.984;2022-07-01T02:26:03;100334.19;;;11.61;56.33
59391;BME280;53405;57.012;40.984;2022-07-01T02:28:49;100341.28;;;11.61;56.89
59391;BME280;53405;57.012;40.984;2022-07-01T02:31:35;100315.31;;;11.49;56.22
59391;BME280;53405;57.012;40.984;2022-07-01T02:34:21;100342.75;;;11.63;56.55
59391;BME280;53405;57.012;40.984;2022-07-01T02:37:07;100346.50;;;11.69;56.04
59391;BME280;53405;57.012;40.984;2022-07-01T02:39:53;100339.28;;;11.63;55.39
59391;BME280;53405;57.012;40.984;2022-07-01T02:42:39;100316.31;;;11.48;55.85
59391;BME280;53405;57.012;40.984;2022-07-01T02:45:25;100335.50;;;11.65;55.92
59391;BME280;53405;57.012;40.984;2022-07-01T02:48:10;100338.75;;;11.67;55.83
59391;BME280;53405;57.012;40.984;2022-07-01T02:50:56;100344.66;;;11.69;55.37
59391;BME280;53405;57.012;40.984;2022-07-01T02:53:42;100350.91;;;11.77;55.77
59391;BME280;53405;57.012;40.984;2022-07-01T02:56:28;100365.34;;;11.81;55.72
59391;BME280;53405;57.012;40.984;2022-07-01T02:58:55;100347.13;;;11.71;55.58
59391;BME280;53405;57.012;40.984;2022-07-01T03:01:23;100346.50;;;11.69;55.45
59391;BME280;53405;57.012;40.984;2022-07-01T03:04:09;100375.91;;;11.81;55.19
59391;BME280;53405;57.012;40.984;2022-07-01T03:06:55;100379.56;;;11.80;55.20
59391;BME280;53405;57.012;40.984;2022-07-01T03:09:41;100384.50;;;11.83;55.58
59391;BME280;53405;57.012;40.984;2022-07-01T03:12:27;100394.53;;;11.87;54.58
59391;BME280;53405;57.012;40.984;2022-07-01T03:15:15;100388.56;;;11.93;55.24
59391;BME280;53405;57.012;40.984;2022-07-01T03:18:01;100392.66;;;11.96;54.78
59391;BME280;53405;57.012;40.984;2022-07-01T03:20:47;100387.88;;;11.91;54.76
59391;BME280;53405;57.012;40.984;2022-07-01T03:23:35;100391.38;;;11.92;54.58
59391;BME280;53405;57.012;40.984;2022-07-01T03:26:20;100392.66;;;11.96;54.57
59391;BME280;53405;57.012;40.984;2022-07-01T03:28:49;100409.97;;;11.99;54.77
59391;BME280;53405;57.012;40.984;2022-07-01T03:31:16;100391.38;;;11.92;54.26
59391;BME280;53405;57.012;40.984;2022-07-01T03:34:02;100400.78;;;11.86;54.66
59391;BME280;53405;57.012;40.984;2022-07-01T03:36:48;100408.88;;;11.85;56.09
59391;BME280;53405;57.012;40.984;2022-07-01T03:39:35;100407.09;;;12.08;54.24
59391;BME280;53405;57.012;40.984;2022-07-01T03:42:21;100418.28;;;12.10;54.48
59391;BME280;53405;57.012;40.984;2022-07-01T03:45:07;100415.09;;;12.15;54.90
59391;BME280;53405;57.012;40.984;2022-07-01T03:47:53;100414.75;;;12.18;54.18
59391;BME280;53405;57.012;40.984;2022-07-01T03:50:39;100425.03;;;12.13;54.09
59391;BME280;53405;57.012;40.984;2022-07-01T03:53:25;100425.03;;;12.13;54.65
59391;BME280;53405;57.012;40.984;2022-07-01T03:56:29;100427.94;;;12.18;54.18
59391;BME280;53405;57.012;40.984;2022-07-01T03:58:57;100423.50;;;12.19;54.26
59391;BME280;53405;57.012;40.984;2022-07-01T04:01:24;100424.06;;;12.29;54.61
59391;BME280;53405;57.012;40.984;2022-07-01T04:03:52;100433.84;;;12.43;54.29
59391;BME280;53405;57.012;40.984;2022-07-01T04:06:37;100436.34;;;12.60;52.88
59391;BME280;53405;57.012;40.984;2022-07-01T04:09:24;100435.31;;;12.61;53.40
59391;BME280;53405;57.012;40.984;2022-07-01T04:12:11;100429.13;;;12.69;53.68
59391;BME280;53405;57.012;40.984;2022-07-01T04:14:42;100437.91;;;12.84;53.09
59391;BME280;53405;57.012;40.984;2022-07-01T04:17:09;100441.53;;;12.83;51.63
59391;BME280;53405;57.012;40.984;2022-07-01T04:19:37;100448.22;;;12.79;51.72
59391;BME280;53405;57.012;40.984;2022-07-01T04:22:23;100448.09;;;12.72;50.88
59391;BME280;53405;57.012;40.984;2022-07-01T04:25:18;100440.66;;;12.76;52.57
59391;BME280;53405;57.012;40.984;2022-07-01T04:28:04;100448.13;;;12.87;50.53
59391;BME280;53405;57.012;40.984;2022-07-01T04:30:49;100440.38;;;12.86;50.32
59391;BME280;53405;57.012;40.984;2022-07-01T04:33:35;100441.91;;;12.80;50.41
59391;BME280;53405;57.012;40.984;2022-07-01T04:36:21;100435.53;;;12.89;51.01
59391;BME280;53405;57.012;40.984;2022-07-01T04:38:49;100441.66;;;13.05;51.14
59391;BME280;53405;57.012;40.984;2022-07-01T04:41:17;100422.69;;;13.01;50.22
59391;BME280;53405;57.012;40.984;2022-07-01T04:44:21;100430.88;;;13.06;50.43
59391;BME280;53405;57.012;40.984;2022-07-01T04:47:07;100434.88;;;13.02;49.76
59391;BME280;53405;57.012;40.984;2022-07-01T04:49:55;100439.38;;;13.01;50.40
59391;BME280;53405;57.012;40.984;2022-07-01T04:52:44;100445.47;;;13.02;50.04
59391;BME280;53405;57.012;40.984;2022-07-01T04:55:31;100447.56;;;13.07;49.21
59391;BME280;53405;57.012;40.984;2022-07-01T04:58:16;100448.03;;;13.10;48.95
59391;BME280;53405;57.012;40.984;2022-07-01T05:01:06;100439.25;;;13.10;48.22
59391;BME280;53405;57.012;40.984;2022-07-01T05:03:43;100447.19;;;13.10;48.75
59391;BME280;53405;57.012;40.984;2022-07-01T05:06:29;100446.94;;;13.05;48.42
59391;BME280;53405;57.012;40.984;2022-07-01T05:09:00;100437.16;;;13.05;47.68
59391;BME280;53405;57.012;40.984;2022-07-01T05:11:47;100449.28;;;13.29;48.11
59391;BME280;53405;57.012;40.984;2022-07-01T05:14:33;100453.03;;;13.50;47.30
59391;BME280;53405;57.012;40.984;2022-07-01T05:17:20;100459.47;;;13.62;46.66
59391;BME280;53405;57.012;40.984;2022-07-01T05:20:27;100447.88;;;13.63;45.13
59391;BME280;53405;57.012;40.984;2022-07-01T05:23:31;100450.81;;;13.53;46.63
59391;BME280;53405;57.012;40.984;2022-07-01T05:26:20;100457.66;;;13.48;47.03
59391;BME280;53405;57.012;40.984;2022-07-01T05:29:06;100455.19;;;13.46;46.69
59391;BME280;53405;57.012;40.984;2022-07-01T05:32:13;100460.84;;;13.58;46.53
59391;BME280;53405;57.012;40.984;2022-07-01T05:34:59;100454.75;;;13.58;46.50
59391;BME280;53405;57.012;40.984;2022-07-01T05:37:28;100457.56;;;13.56;46.93
59391;BME280;53405;57.012;40.984;2022-07-01T05:39:55;100449.47;;;13.43;47.31
59391;BME280;53405;57.012;40.984;2022-07-01T05:42:41;100462.59;;;13.51;47.80
59391;BME280;53405;57.012;40.984;2022-07-01T05:45:27;100455.31;;;13.74;47.19
59391;BME280;53405;57.012;40.984;2022-07-01T05:48:13;100462.78;;;13.86;46.41
59391;BME280;53405;57.012;40.984;2022-07-01T05:51:00;100467.66;;;14.04;47.37
59391;BME280;53405;57.012;40.984;2022-07-01T05:53:45;100475.03;;;14.08;45.58
59391;BME280;53405;57.012;40.984;2022-07-01T05:56:34;100455.41;;;14.03;45.46
59391;BME280;53405;57.012;40.984;2022-07-01T05:59:20;100454.41;;;14.04;45.63
59391;BME280;53405;57.012;40.984;2022-07-01T06:02:06;100460.97;;;14.08;45.01
59391;BME280;53405;57.012;40.984;2022-07-01T06:04:52;100450.00;;;14.11;45.44
59391;BME280;53405;57.012;40.984;2022-07-01T06:07:23;100429.81;;;13.88;45.41
59391;BME280;53405;57.012;40.984;2022-07-01T06:09:51;100468.13;;;14.14;44.54
59391;BME280;53405;57.012;40.984;2022-07-01T06:12:38;100459.75;;;14.32;45.08
59391;BME280;53405;57.012;40.984;2022-07-01T06:15:26;100436.94;;;14.38;44.45
59391;BME280;53405;57.012;40.984;2022-07-01T06:18:12;100458.50;;;14.56;44.34
59391;BME280;53405;57.012;40.984;2022-07-01T06:20:58;100469.75;;;14.58;45.50
59391;BME280;53405;57.012;40.984;2022-07-01T06:23:44;100463.41;;;14.81;45.04
59391;BME280;53405;57.012;40.984;2022-07-01T06:26:31;100466.31;;;14.93;44.56
59391;BME280;53405;57.012;40.984;2022-07-01T06:29:17;100475.16;;;15.00;43.23
59391;BME280;53405;57.012;40.984;2022-07-01T06:32:07;100480.81;;;14.90;43.30
59391;BME280;53405;57.012;40.984;2022-07-01T06:34:53;100471.16;;;14.82;44.38
59391;BME280;53405;57.012;40.984;2022-07-01T06:37:25;100480.16;;;14.88;43.55
59391;BME280;53405;57.012;40.984;2022-07-01T06:39:53;100455.41;;;14.74;43.75
59391;BME280;53405;57.012;40.984;2022-07-01T06:42:39;100464.59;;;14.78;42.70
59391;BME280;53405;57.012;40.984;2022-07-01T06:45:26;100481.09;;;14.74;43.38
59391;BME280;53405;57.012;40.984;2022-07-01T06:48:12;100484.75;;;14.73;44.98
59391;BME280;53405;57.012;40.984;2022-07-01T06:51:00;100489.09;;;14.80;44.48
59391;BME280;53405;57.012;40.984;2022-07-01T06:53:46;100454.03;;;14.85;46.53
59391;BME280;53405;57.012;40.984;2022-07-01T06:56:14;100464.56;;;15.07;44.97
59391;BME280;53405;57.012;40.984;2022-07-01T06:58:42;100467.88;;;15.15;43.77
59391;BME280;53405;57.012;40.984;2022-07-01T07:01:10;100480.47;;;15.07;43.71
59391;BME280;53405;57.012;40.984;2022-07-01T07:03:38;100487.44;;;15.08;44.00
59391;BME280;53405;57.012;40.984;2022-07-01T07:06:05;100492.56;;;15.16;43.74
59391;BME280;53405;57.012;40.984;2022-07-01T07:08:34;100482.53;;;15.11;45.22
59391;BME280;53405;57.012;40.984;2022-07-01T07:11:01;100481.69;;;15.46;45.56
59391;BME280;53405;57.012;40.984;2022-07-01T07:13:30;100492.41;;;15.72;44.00
59391;BME280;53405;57.012;40.984;2022-07-01T07:15:57;100490.75;;;15.71;42.75
59391;BME280;53405;57.012;40.984;2022-07-01T07:18:24;100472.97;;;15.59;43.26
59391;BME280;53405;57.012;40.984;2022-07-01T07:20:51;100456.22;;;15.58;44.30
59391;BME280;53405;57.012;40.984;2022-07-01T07:23:21;100483.47;;;15.80;42.38
59391;BME280;53405;57.012;40.984;2022-07-01T07:25:49;100482.69;;;15.86;42.73
59391;BME280;53405;57.012;40.984;2022-07-01T07:28:16;100482.69;;;15.93;42.82
59391;BME280;53405;57.012;40.984;2022-07-01T07:30:44;100493.75;;;16.10;44.50
59391;BME280;53405;57.012;40.984;2022-07-01T07:33:11;100492.13;;;16.16;42.14
59391;BME280;53405;57.012;40.984;2022-07-01T07:35:38;100489.91;;;16.19;41.52
59391;BME280;53405;57.012;40.984;2022-07-01T07:38:12;100483.13;;;16.17;41.33
59391;BME280;53405;57.012;40.984;2022-07-01T07:40:40;100483.56;;;16.27;41.74
59391;BME280;53405;57.012;40.984;2022-07-01T07:43:07;100488.69;;;16.42;42.58
59391;BME280;53405;57.012;40.984;2022-07-01T07:45:35;100497.69;;;16.48;40.88
59391;BME280;53405;57.012;40.984;2022-07-01T07:48:02;100495.44;;;16.51;40.96
59391;BME280;53405;57.012;40.984;2022-07-01T07:50:49;100500.13;;;16.62;42.17
59391;BME280;53405;57.012;40.984;2022-07-01T07:53:16;100492.34;;;16.74;40.27
59391;BME280;53405;57.012;40.984;2022-07-01T07:55:44;100487.44;;;16.91;41.39
59391;BME280;53405;57.012;40.984;2022-07-01T07:58:11;100492.53;;;17.00;40.95
59391;BME280;53405;57.012;40.984;2022-07-01T08:00:38;100501.13;;;16.82;40.88
59391;BME280;53405;57.012;40.984;2022-07-01T08:03:06;100491.94;;;16.64;40.52
59391;BME280;53405;57.012;40.984;2022-07-01T08:05:34;100480.91;;;16.60;43.18
59391;BME280;53405;57.012;40.984;2022-07-01T08:08:01;100474.94;;;16.85;41.56
59391;BME280;53405;57.012;40.984;2022-07-01T08:10:29;100504.38;;;17.17;41.74
59391;BME280;53405;57.012;40.984;2022-07-01T08:12:56;100486.97;;;17.14;39.56
59391;BME280;53405;57.012;40.984;2022-07-01T08:15:24;100491.84;;;17.24;39.86
59391;BME280;53405;57.012;40.984;2022-07-01T08:17:51;100502.47;;;17.31;40.45
59391;BME280;53405;57.012;40.984;2022-07-01T08:20:19;100499.00;;;17.30;38.63
59391;BME280;53405;57.012;40.984;2022-07-01T08:22:48;100496.25;;;17.57;41.06
59391;BME280;53405;57.012;40.984;2022-07-01T08:25:15;100497.34;;;17.81;39.00
59391;BME280;53405;57.012;40.984;2022-07-01T08:28:02;100495.06;;;17.92;39.63
59391;BME280;53405;57.012;40.984;2022-07-01T08:30:49;100503.31;;;18.15;39.33
59391;BME280;53405;57.012;40.984;2022-07-01T08:33:34;100507.38;;;18.24;38.86
59391;BME280;53405;57.012;40.984;2022-07-01T08:36:20;100506.19;;;18.46;38.08
59391;BME280;53405;57.012;40.984;2022-07-01T08:39:06;100502.03;;;18.24;37.81
59391;BME280;53405;57.012;40.984;2022-07-01T08:41:51;100499.09;;;18.33;37.25
59391;BME280;53405;57.012;40.984;2022-07-01T08:44:37;100507.22;;;18.13;37.73
59391;BME280;53405;57.012;40.984;2022-07-01T08:47:25;100516.97;;;18.26;38.64
59391;BME280;53405;57.012;40.984;2022-07-01T08:50:11;100513.94;;;18.98;37.39
59391;BME280;53405;57.012;40.984;2022-07-01T08:52:58;100517.59;;;19.59;36.29
59391;BME280;53405;57.012;40.984;2022-07-01T08:55:43;100518.09;;;19.86;36.92
59391;BME280;53405;57.012;40.984;2022-07-01T08:58:49;100512.69;;;20.04;34.38
59391;BME280;53405;57.012;40.984;2022-07-01T09:01:21;100524.84;;;19.52;35.72
59391;BME280;53405;57.012;40.984;2022-07-01T09:04:18;100512.72;;;19.86;36.45
59391;BME280;53405;57.012;40.984;2022-07-01T09:07:09;100513.47;;;20.47;33.58
59391;BME280;53405;57.012;40.984;2022-07-01T09:09:56;100517.25;;;20.16;34.13
59391;BME280;53405;57.012;40.984;2022-07-01T09:12:42;100497.34;;;20.00;34.46
59391;BME280;53405;57.012;40.984;2022-07-01T09:15:29;100512.34;;;20.13;34.32
59391;BME280;53405;57.012;40.984;2022-07-01T09:18:16;100510.56;;;20.49;34.14
59391;BME280;53405;57.012;40.984;2022-07-01T09:21:07;100494.56;;;20.72;34.02
59391;BME280;53405;57.012;40.984;2022-07-01T09:23:44;100497.22;;;20.96;32.06
59391;BME280;53405;57.012;40.984;2022-07-01T09:26:31;100500.72;;;20.73;32.54
59391;BME280;53405;57.012;40.984;2022-07-01T09:29:17;100510.34;;;20.50;33.85
59391;BME280;53405;57.012;40.984;2022-07-01T09:32:06;100510.09;;;20.40;34.50
59391;BME280;53405;57.012;40.984;2022-07-01T09:34:53;100510.03;;;20.70;32.65
59391;BME280;53405;57.012;40.984;2022-07-01T09:37:42;100505.75;;;20.27;32.98
59391;BME280;53405;57.012;40.984;2022-07-01T09:43:36;100520.50;;;20.18;33.79
59391;BME280;53405;57.012;40.984;2022-07-01T09:46:22;100516.44;;;20.15;34.00
59391;BME280;53405;57.012;40.984;2022-07-01T09:49:08;100517.69;;;20.90;34.36
59391;BME280;53405;57.012;40.984;2022-07-01T09:51:54;100519.91;;;21.70;33.21
59391;BME280;53405;57.012;40.984;2022-07-01T09:54:40;100507.59;;;21.57;33.21
59391;BME280;53405;57.012;40.984;2022-07-01T09:57:27;100510.34;;;22.19;32.50
59391;BME280;53405;57.012;40.984;2022-07-01T10:00:13;100511.41;;;22.18;31.60
59391;BME280;53405;57.012;40.984;2022-07-01T10:03:03;100506.47;;;22.61;31.27
59391;BME280;53405;57.012;40.984;2022-07-01T10:05:54;100509.31;;;22.54;31.04
59391;BME280;53405;57.012;40.984;2022-07-01T10:08:57;100505.25;;;22.35;31.19
59391;BME280;53405;57.012;40.984;2022-07-01T10:14:48;100515.38;;;23.01;31.33
59391;BME280;53405;57.012;40.984;2022-07-01T10:17:41;100490.69;;;22.65;30.47
59391;BME280;53405;57.012;40.984;2022-07-01T10:20:29;100508.44;;;22.32;31.09
59391;BME280;53405;57.012;40.984;2022-07-01T10:23:19;100513.63;;;22.72;30.48
59391;BME280;53405;57.012;40.984;2022-07-01T10:26:06;100501.25;;;22.71;30.78
59391;BME280;53405;57.012;40.984;2022-07-01T10:28:57;100501.53;;;22.92;30.12
59391;BME280;53405;57.012;40.984;2022-07-01T10:31:42;100507.69;;;22.36;31.48
59391;BME280;53405;57.012;40.984;2022-07-01T10:34:39;100515.84;;;22.98;30.56
59391;BME280;53405;57.012;40.984;2022-07-01T10:37:25;100495.94;;;22.77;30.56
59391;BME280;53405;57.012;40.984;2022-07-01T10:40:11;100505.50;;;23.06;30.27
59391;BME280;53405;57.012;40.984;2022-07-01T10:42:58;100494.47;;;23.25;30.13
59391;BME280;53405;57.012;40.984;2022-07-01T10:46:00;100495.72;;;23.39;30.80
59391;BME280;53405;57.012;40.984;2022-07-01T10:48:48;100513.75;;;23.66;30.10
59391;BME280;53405;57.012;40.984;2022-07-01T10:51:58;100502.63;;;23.79;29.70
59391;BME280;53405;57.012;40.984;2022-07-01T10:54:47;100509.16;;;24.16;29.69
59391;BME280;53405;57.012;40.984;2022-07-01T10:57:31;100505.84;;;23.54;29.92
59391;BME280;53405;57.012;40.984;2022-07-01T11:02:28;100509.00;;;23.73;29.80
59391;BME280;53405;57.012;40.984;2022-07-01T11:05:13;100481.13;;;22.91;30.86
59391;BME280;53405;57.012;40.984;2022-07-01T11:07:43;100507.31;;;23.40;30.22
59391;BME280;53405;57.012;40.984;2022-07-01T11:10:16;100473.75;;;23.70;29.65
59391;BME280;53405;57.012;40.984;2022-07-01T11:12:44;100506.09;;;22.91;30.93
59391;BME280;53405;57.012;40.984;2022-07-01T11:15:11;100505.66;;;22.61;31.48
59391;BME280;53405;57.012;40.984;2022-07-01T11:17:47;100511.41;;;22.86;30.79
59391;BME280;53405;57.012;40.984;2022-07-01T11:20:14;100495.50;;;22.63;30.78
59391;BME280;53405;57.012;40.984;2022-07-01T11:22:44;100507.63;;;22.48;31.69
59391;BME280;53405;57.012;40.984;2022-07-01T11:25:12;100502.75;;;22.45;32.40
59391;BME280;53405;57.012;40.984;2022-07-01T11:27:45;100487.53;;;22.17;31.77
59391;BME280;53405;57.012;40.984;2022-07-01T11:30:14;100506.56;;;22.49;31.38
59391;BME280;53405;57.012;40.984;2022-07-01T11:33:12;100512.84;;;23.11;31.19
59391;BME280;53405;57.012;40.984;2022-07-01T11:36:07;100507.34;;;23.23;30.66
59391;BME280;53405;57.012;40.984;2022-07-01T11:38:54;100503.72;;;23.34;31.00
59391;BME280;53405;57.012;40.984;2022-07-01T11:41:40;100518.28;;;23.16;31.20
59391;BME280;53405;57.012;40.984;2022-07-01T11:44:08;100519.84;;;23.34;30.92
59391;BME280;53405;57.012;40.984;2022-07-01T11:46:35;100517.78;;;23.19;30.49
59391;BME280;53405;57.012;40.984;2022-07-01T11:49:11;100510.78;;;23.01;30.75
59391;BME280;53405;57.012;40.984;2022-07-01T11:51:54;100505.31;;;22.91;30.93
59391;BME280;53405;57.012;40.984;2022-07-01T11:54:22;100510.03;;;23.45;30.33
59391;BME280;53405;57.012;40.984;2022-07-01T11:56:50;100510.72;;;23.13;30.29
59391;BME280;53405;57.012;40.984;2022-07-01T11:59:19;100520.72;;;22.62;32.49
59391;BME280;53405;57.012;40.984;2022-07-01T12:01:54;100504.28;;;23.36;30.38
59391;BME280;53405;57.012;40.984;2022-07-01T12:04:24;100515.84;;;23.59;30.08
59391;BME280;53405;57.012;40.984;2022-07-01T12:07:15;100521.50;;;22.79;30.95
59391;BME280;53405;57.012;40.984;2022-07-01T12:09:51;100515.09;;;22.46;31.40
59391;BME280;53405;57.012;40.984;2022-07-01T12:12:21;100508.53;;;22.08;32.26
59391;BME280;53405;57.012;40.984;2022-07-01T12:14:54;100503.06;;;22.32;32.47
59391;BME280;53405;57.012;40.984;2022-07-01T12:17:23;100507.44;;;22.72;31.19
59391;BME280;53405;57.012;40.984;2022-07-01T12:19:52;100504.06;;;21.97;32.11
59391;BME280;53405;57.012;40.984;2022-07-01T12:22:25;100520.19;;;21.44;33.28
59391;BME280;53405;57.012;40.984;2022-07-01T12:25:05;100531.06;;;21.14;33.59
59391;BME280;53405;57.012;40.984;2022-07-01T12:27:34;100517.47;;;21.04;34.34
59391;BME280;53405;57.012;40.984;2022-07-01T12:30:06;100513.13;;;22.25;33.03
59391;BME280;53405;57.012;40.984;2022-07-01T12:32:36;100519.66;;;22.46;32.17
59391;BME280;53405;57.012;40.984;2022-07-01T12:35:06;100479.53;;;21.47;33.06
59391;BME280;53405;57.012;40.984;2022-07-01T12:37:56;100522.72;;;21.63;33.32
59391;BME280;53405;57.012;40.984;2022-07-01T12:40:26;100531.38;;;21.41;33.33
59391;BME280;53405;57.012;40.984;2022-07-01T12:42:56;100522.94;;;21.09;34.10
59391;BME280;53405;57.012;40.984;2022-07-01T12:45:29;100529.44;;;21.01;35.28
59391;BME280;53405;57.012;40.984;2022-07-01T12:47:57;100523.69;;;21.33;34.09
59391;BME280;53405;57.012;40.984;2022-07-01T12:50:27;100519.66;;;21.30;34.02
59391;BME280;53405;57.012;40.984;2022-07-01T12:55:32;100524.97;;;21.54;33.83
59391;BME280;53405;57.012;40.984;2022-07-01T12:58:01;100521.84;;;21.34;33.17
59391;BME280;53405;57.012;40.984;2022-07-01T13:00:45;100512.94;;;21.16;33.78
59391;BME280;53405;57.012;40.984;2022-07-01T13:03:22;100504.91;;;21.04;33.84
59391;BME280;53405;57.012;40.984;2022-07-01T13:05:54;100510.34;;;21.09;33.86
59391;BME280;53405;57.012;40.984;2022-07-01T13:08:22;100513.03;;;21.09;34.22
59391;BME280;53405;57.012;40.984;2022-07-01T13:10:50;100519.53;;;21.25;34.61
59391;BME280;53405;57.012;40.984;2022-07-01T13:13:21;100512.41;;;21.31;34.22
59391;BME280;53405;57.012;40.984;2022-07-01T13:16:06;100507.81;;;21.15;34.62
59391;BME280;53405;57.012;40.984;2022-07-01T13:18:34;100523.75;;;21.21;34.28
59391;BME280;53405;57.012;40.984;2022-07-01T13:21:01;100508.22;;;21.23;33.86
59391;BME280;53405;57.012;40.984;2022-07-01T13:23:29;100517.16;;;21.41;34.05
59391;BME280;53405;57.012;40.984;2022-07-01T13:25:58;100510.66;;;21.48;33.85
59391;BME280;53405;57.012;40.984;2022-07-01T13:28:26;100525.69;;;21.50;33.33
59391;BME280;53405;57.012;40.984;2022-07-01T13:30:55;100519.97;;;21.46;34.10
59391;BME280;53405;57.012;40.984;2022-07-01T13:33:26;100497.50;;;21.35;33.68
59391;BME280;53405;57.012;40.984;2022-07-01T13:35:54;100518.94;;;21.35;32.97
59391;BME280;53405;57.012;40.984;2022-07-01T13:38:21;100527.91;;;21.17;33.56
59391;BME280;53405;57.012;40.984;2022-07-01T13:40:49;100525.28;;;21.05;33.73
59391;BME280;53405;57.012;40.984;2022-07-01T13:43:17;100517.00;;;20.95;33.41
59391;BME280;53405;57.012;40.984;2022-07-01T13:46:04;100520.28;;;20.85;34.28
59391;BME280;53405;57.012;40.984;2022-07-01T13:48:32;100527.03;;;20.88;34.26
59391;BME280;53405;57.012;40.984;2022-07-01T13:51:18;100523.75;;;20.86;34.46
59391;BME280;53405;57.012;40.984;2022-07-01T13:54:04;100523.28;;;20.89;34.29
59391;BME280;53405;57.012;40.984;2022-07-01T13:56:51;100517.84;;;20.72;35.38
59391;BME280;53405;57.012;40.984;2022-07-01T13:59:39;100515.50;;;20.87;35.09